KRWF/RWF METAR and TAF weather

Enter ICAO airport designator
Station Type Date Time Source
KRWF METAR 2020/01/20 09:53 UTC NOAA

KRWF 200953Z AUTO 29008KT 10SM OVC044 M20/M23 A3062 RMK AO2 SLP399 T12001228 $


Station Type Date Time Source
KRWF Decoded METAR 2020/01/20 09:53 UTC NOAA

REDWOOD FALLS MUNICIPAL, MN, United States (KRWF) 44-33N 95-05W 311M
Jan 20, 2020 - 04:53 AM EST / 2020.01.20 0953 UTC
Wind: from the WNW (290 degrees) at 9 MPH (8 KT):0
Visibility: 10 mile(s):0
Sky conditions: overcast
Temperature: -4.0 F (-20.0 C)
Windchill: -20 F (-29 C):2
Dew Point: -9.0 F (-22.8 C)
Relative Humidity: 78%
Pressure (altimeter): 30.62 in. Hg (1036 hPa)
ob: KRWF 200953Z AUTO 29008KT 10SM OVC044 M20/M23 A3062 RMK AO2 SLP399 T12001228
cycle: 10

Station Type Date Time Source
KRWF TAF 2020/01/20 06:22 UTC NOAA

TAF KRWF 200520Z 2006/2106 31007KT P6SM -SN SCT007 OVC015
FM201200 33005KT P6SM SCT015 BKN035
FM202100 22006KT P6SM SCT250

Example: see airport list